This is the latest recevied weather packets stored in our database for station/object N3DOU-1. If no packets are shown the sender has not sent any weather packets the latest 10 day(s).
| Time | Temp. | Humidity | Pressure | Rain* | Wind** | Luminosity | Snow |
|---|---|---|---|---|---|---|---|
| 1777331484 | 18.89° C | 60% | 1022.6 hPa | 0 mm | - | - | - |
| 1777330584 | 19.44° C | 56% | 1022.4 hPa | 0 mm | - | - | - |
| 1777329685 | 19.44° C | 53% | 1022.3 hPa | 0 mm | - | - | - |
| 1777328783 | 20° C | 51% | 1022.1 hPa | 0 mm | - | - | - |
| 1777327884 | 20° C | 51% | 1022.3 hPa | 0 mm | - | - | - |
| 1777326984 | 20.56° C | 54% | 1022.4 hPa | 0 mm | - | - | - |
| 1777326084 | 20.56° C | 54% | 1022.4 hPa | 0 mm | - | - | - |
| 1777325183 | 20.56° C | 53% | 1022.6 hPa | 0 mm | - | - | - |
| 1777324284 | 21.11° C | 49% | 1022.5 hPa | 0 mm | - | - | - |
| 1777323383 | 21.11° C | 49% | 1022.5 hPa | 0 mm | - | - | - |
| 1777322484 | 21.67° C | 49% | 1022.5 hPa | 0 mm | - | - | - |
| 1777320683 | 21.11° C | 53% | 1022.8 hPa | 0 mm | - | - | - |
| 1777319783 | 21.11° C | 51% | 1022.9 hPa | 0 mm | - | - | - |
| 1777318884 | 21.11° C | 53% | 1022.9 hPa | 0 mm | - | - | - |
| 1777317983 | 20.56° C | 55% | 1023.1 hPa | 0 mm | - | - | - |
| 1777317085 | 20.56° C | 49% | 1023 hPa | 0 mm | - | - | - |
| 1777316184 | 20° C | 53% | 1023.1 hPa | 0 mm | - | - | - |
| 1777315285 | 20.56° C | 51% | 1023.1 hPa | 0 mm | - | - | - |
| 1777314385 | 20.56° C | 54% | 1023.3 hPa | 0 mm | - | - | - |
| 1777313486 | 20° C | 54% | 1023.6 hPa | 0 mm | - | - | - |
| 1777312583 | 20.56° C | 55% | 1023.7 hPa | 0 mm | - | - | - |
| 1777311686 | 20° C | 56% | 1023.7 hPa | 0 mm | - | - | - |
| 1777310784 | 18.89° C | 54% | 1024 hPa | 0 mm | - | - | - |
| 1777309886 | 18.89° C | 58% | 1024.2 hPa | 0 mm | - | - | - |
| 1777308985 | 18.33° C | 57% | 1024.3 hPa | 0 mm | - | - | - |
* Rain latest hour (hover to see other rain measurements)
** Current wind speed in m/s (hover to see current wind gust speed)